Impacts METAR Board
IDs:

KPDX - Portland Intl Arpt, OR, US

Updated at: 0300 UTC 23 May 2018
Potential Impact None Slight Moderate High
Time 22/15Z 22/16Z 22/17Z 22/18Z 22/19Z 22/20Z 22/21Z 22/22Z 22/23Z 23/00Z 23/01Z 23/02Z 23/03Z
Temp58 62 64 67 72 75 77 82 84 85 85 83 79
Dewpt50 51 52 52 53 52 52 51 54 54 53 53 56
Altim29.95 29.94 29.93 29.91 29.89 29.86 29.83 29.80 29.77 29.75 29.75 29.74 29.74
VIS10 10 10 10 10 10 10 10 10 10 10 10 10
CIG-- -- -- -- -- -- -- -- -- -- -- -- --
CoverFEWCLRCLRFEWFEWFEWFEWFEWFEWFEWFEWFEWFEW
FltCatVFRVFRVFRVFRVFRVFRVFRVFRVFRVFRVFRVFRVFR
WX--------------------------
WDir30029000270280300290320340330340
WSpd3 3 4 6 3 7 8 8 10 11 7 7 7
WGst-- -- -- -- -- -- -- -- -- 15 -- 15 15
Raw hourly METARs
KPDX 221453Z 03003KT 10SM FEW015 14/10 A2995 RMK AO2 SLP139 T01440100 53003
KPDX 221553Z VRB03KT 10SM CLR 17/11 A2994 RMK AO2 SLP138 T01670106
KPDX 221653Z 29004KT 10SM CLR 18/11 A2993 RMK AO2 SLP133 T01780111
KPDX 221753Z VRB06KT 10SM FEW065 19/11 A2991 RMK AO2 SLP127 T01940111 10194 20122 58012
KPDX 221853Z VRB03KT 10SM FEW080 22/12 A2989 RMK AO2 SLP121 T02220117
KPDX 221953Z 27007KT 10SM FEW080 24/11 A2986 RMK AO2 SLP110 T02390111
KPDX 222053Z 28008KT 10SM FEW080 25/11 A2983 RMK AO2 SLP099 T02500111 58027
KPDX 222153Z 30008KT 10SM FEW080 28/11 A2980 RMK AO2 SLP090 T02780106
KPDX 222253Z 29010KT 10SM FEW070 29/12 A2977 RMK AO2 SLP081 T02890122
KPDX 222353Z 32011G15KT 10SM FEW070 29/12 A2975 RMK AO2 SLP075 T02940122 10300 20194 56024
KPDX 230053Z 34007KT 10SM FEW070 29/12 A2975 RMK AO2 SLP073 T02940117
KPDX 230153Z 33007G15KT 10SM FEW070 FEW250 28/12 A2974 RMK AO2 SLP070 T02830117
KPDX 230253Z 34007G15KT 10SM FEW075 26/13 A2974 RMK AO2 SLP071 T02610133 55004



Page loaded:  03:04 UTC  |   08:04 PM Pacific  |   09:04 PM Mountain  |   10:04 PM Central  |   11:04 PM Eastern

 

ADVISORIES

FORECASTS

FORECASTS

OBSERVATIONS

USER TOOLS

ABOUT US